createdAt,value
2022-10-27T00:00:54.912Z,11.77
2022-10-27T00:03:34.449Z,12.23
2022-10-27T00:06:06.885Z,12.07
2022-10-27T00:08:34.184Z,11.43
2022-10-27T00:11:05.672Z,13.40
2022-10-27T00:13:32.572Z,12.35
2022-10-27T00:16:03.407Z,11.45
2022-10-27T00:18:30.667Z,11.32
2022-10-27T00:21:05.714Z,11.20
2022-10-27T00:23:32.861Z,11.10
2022-10-27T00:26:01.851Z,11.93
2022-10-27T00:28:29.986Z,11.60
2022-10-27T00:31:12.027Z,12.10
2022-10-27T00:33:39.076Z,11.85
2022-10-27T00:36:09.605Z,13.80
2022-10-27T00:38:36.743Z,11.93
2022-10-27T00:41:05.607Z,12.75
2022-10-27T00:43:37.397Z,13.13
2022-10-27T00:46:23.481Z,13.52
2022-10-27T00:49:04.709Z,13.65
2022-10-27T00:51:32.290Z,11.88
2022-10-27T00:53:59.197Z,12.63
2022-10-27T00:56:26.446Z,12.15
2022-10-27T00:58:53.576Z,12.98
2022-10-27T01:01:21.405Z,12.57
2022-10-27T01:03:48.493Z,12.18
2022-10-27T01:06:16.259Z,13.00
2022-10-27T01:08:45.041Z,12.50
2022-10-27T01:11:12.037Z,14.15
2022-10-27T01:13:39.452Z,12.75
2022-10-27T01:16:26.694Z,12.23
2022-10-27T01:19:37.367Z,12.98
2022-10-27T01:22:29.793Z,12.07
2022-10-27T01:25:27.458Z,12.35
2022-10-27T01:28:23.360Z,12.73
2022-10-27T01:31:20.320Z,12.07
2022-10-27T01:33:59.346Z,12.65
2022-10-27T01:36:48.026Z,12.65
2022-10-27T01:39:23.730Z,11.25
2022-10-27T01:41:56.389Z,12.23
2022-10-27T01:44:36.978Z,10.85
2022-10-27T01:47:04.291Z,11.50
2022-10-27T01:49:42.909Z,10.52
2022-10-27T01:52:39.964Z,10.60
2022-10-27T01:55:14.899Z,10.85
2022-10-27T01:57:59.973Z,10.80
2022-10-27T02:00:27.540Z,12.65
2022-10-27T02:03:13.617Z,10.07
2022-10-27T02:05:51.736Z,11.45
2022-10-27T02:09:01.527Z,10.38
2022-10-27T02:11:33.027Z,11.63
2022-10-27T02:14:00.650Z,10.80
2022-10-27T02:16:39.267Z,11.13
2022-10-27T02:19:10.800Z,11.38
2022-10-27T02:21:37.970Z,10.25
2022-10-27T02:24:06.957Z,11.32
2022-10-27T02:26:46.653Z,11.40
2022-10-27T02:29:36.204Z,10.95
2022-10-27T02:32:09.419Z,10.55
2022-10-27T02:34:38.975Z,11.15
2022-10-27T02:37:09.158Z,10.40
2022-10-27T02:39:36.453Z,10.60
2022-10-27T02:42:05.403Z,9.63
2022-10-27T02:44:32.253Z,9.48
2022-10-27T02:47:01.146Z,9.30
2022-10-27T02:49:28.813Z,9.38
2022-10-27T02:51:55.816Z,8.90
2022-10-27T02:54:22.708Z,10.05
2022-10-27T02:56:49.709Z,9.23
2022-10-27T02:59:16.671Z,10.45
2022-10-27T03:01:43.759Z,11.07
2022-10-27T03:04:10.861Z,10.85
2022-10-27T03:06:37.831Z,9.07
2022-10-27T03:09:04.672Z,9.85
2022-10-27T03:11:31.943Z,10.32
2022-10-27T03:13:58.895Z,9.93
2022-10-27T03:16:25.805Z,9.82
2022-10-27T03:18:52.770Z,9.43
2022-10-27T03:21:19.781Z,9.77
2022-10-27T03:23:46.621Z,9.40
2022-10-27T03:26:14.693Z,9.77
2022-10-27T03:28:41.516Z,9.82
2022-10-27T03:31:08.547Z,9.07
2022-10-27T03:33:35.400Z,10.20
2022-10-27T03:36:02.354Z,9.63
2022-10-27T03:38:29.137Z,9.57
2022-10-27T03:40:56.071Z,9.60
2022-10-27T03:43:22.911Z,9.27
2022-10-27T03:45:50.138Z,10.02
2022-10-27T03:48:17.551Z,9.85
2022-10-27T03:50:50.747Z,8.90
2022-10-27T03:53:18.738Z,9.20
2022-10-27T03:55:48.213Z,9.13
2022-10-27T03:58:17.509Z,8.48
2022-10-27T04:00:46.437Z,8.52
2022-10-27T04:03:14.107Z,8.65
2022-10-27T04:05:41.176Z,8.25
2022-10-27T04:08:08.200Z,9.25
2022-10-27T04:10:35.776Z,8.90
2022-10-27T04:13:02.709Z,7.93
2022-10-27T04:15:29.804Z,8.32
2022-10-27T04:17:59.693Z,8.48
2022-10-27T04:20:28.178Z,8.10
2022-10-27T04:22:56.851Z,8.27
2022-10-27T04:25:24.950Z,8.45
2022-10-27T04:27:57.616Z,8.60
2022-10-27T04:30:24.812Z,8.27
2022-10-27T04:32:54.765Z,7.68
2022-10-27T04:35:21.867Z,7.85
2022-10-27T04:37:49.015Z,8.00
2022-10-27T04:40:16.403Z,8.35
2022-10-27T04:42:47.186Z,8.30
2022-10-27T04:45:14.635Z,8.15
2022-10-27T04:47:42.804Z,9.10
2022-10-27T04:50:10.280Z,8.07
2022-10-27T04:52:39.399Z,8.32
2022-10-27T04:55:09.763Z,7.57
2022-10-27T04:57:36.666Z,8.18
2022-10-27T05:00:04.898Z,9.13
2022-10-27T05:02:34.659Z,7.90
2022-10-27T05:05:05.479Z,7.80
2022-10-27T05:07:32.317Z,8.70
2022-10-27T05:09:59.349Z,8.10
2022-10-27T05:12:26.586Z,7.55
2022-10-27T05:14:53.574Z,8.50
2022-10-27T05:17:20.397Z,7.40
2022-10-27T05:19:47.408Z,8.45
2022-10-27T05:22:14.238Z,8.70
2022-10-27T05:24:41.229Z,10.30
2022-10-27T05:27:08.030Z,8.57
2022-10-27T05:29:35.026Z,8.32
2022-10-27T05:32:01.824Z,8.30
2022-10-27T05:34:28.782Z,7.95
2022-10-27T05:36:55.567Z,8.52
2022-10-27T05:39:22.571Z,8.70
2022-10-27T05:41:49.372Z,8.52
2022-10-27T05:44:16.426Z,8.60
2022-10-27T05:46:43.306Z,9.00
2022-10-27T05:49:10.345Z,8.02
2022-10-27T05:51:37.237Z,8.63
2022-10-27T05:54:04.368Z,8.20
2022-10-27T05:56:31.746Z,7.93
2022-10-27T05:58:58.888Z,7.95
2022-10-27T06:01:26.027Z,8.60
2022-10-27T06:03:53.160Z,8.85
2022-10-27T06:06:20.294Z,8.18
2022-10-27T06:08:47.253Z,8.65
2022-10-27T06:11:14.113Z,7.68
2022-10-27T06:13:41.339Z,8.45
2022-10-27T06:16:10.743Z,7.20
2022-10-27T06:18:42.017Z,7.32
2022-10-27T06:21:09.282Z,7.85
2022-10-27T06:23:37.932Z,8.50
2022-10-27T06:26:04.801Z,7.75
2022-10-27T06:28:31.862Z,7.78
2022-10-27T06:30:58.927Z,7.10
2022-10-27T06:33:26.067Z,7.60
2022-10-27T06:35:52.998Z,6.97
2022-10-27T06:38:20.098Z,7.40
2022-10-27T06:40:46.970Z,8.50
2022-10-27T06:43:15.438Z,7.10
2022-10-27T06:45:48.320Z,7.70
2022-10-27T06:48:15.602Z,8.20
2022-10-27T06:50:42.957Z,7.57
2022-10-27T06:53:10.131Z,7.47
2022-10-27T06:55:36.998Z,7.43
2022-10-27T06:58:04.436Z,7.47
2022-10-27T07:00:31.647Z,6.85
2022-10-27T07:02:59.231Z,6.60
2022-10-27T07:05:26.415Z,6.93
2022-10-27T07:07:54.218Z,7.40
2022-10-27T07:10:21.713Z,7.63
2022-10-27T07:13:00.927Z,6.82
2022-10-27T07:15:32.309Z,8.27
2022-10-27T07:18:02.784Z,7.18
2022-10-27T07:20:33.569Z,6.95
2022-10-27T07:23:02.035Z,8.23
2022-10-27T07:25:30.706Z,8.32
2022-10-27T07:27:58.319Z,8.25
2022-10-27T07:30:33.066Z,8.98
2022-10-27T07:33:00.352Z,8.75
2022-10-27T07:35:28.277Z,7.88
2022-10-27T07:37:55.850Z,8.00
2022-10-27T07:40:28.587Z,7.68
2022-10-27T07:43:05.115Z,7.10
2022-10-27T07:45:37.876Z,8.05
2022-10-27T07:48:07.359Z,7.28
2022-10-27T07:50:34.702Z,8.45
2022-10-27T07:53:02.698Z,8.55
2022-10-27T07:55:32.503Z,7.57
2022-10-27T07:58:09.254Z,8.80
2022-10-27T08:01:05.935Z,7.75
2022-10-27T08:03:59.119Z,7.68
2022-10-27T08:06:26.352Z,8.27
2022-10-27T08:08:53.458Z,7.50
2022-10-27T08:11:22.930Z,7.72
2022-10-27T08:13:50.462Z,7.85
2022-10-27T08:16:17.724Z,15.57
2022-10-27T08:18:44.951Z,10.18
2022-10-27T08:21:11.819Z,9.15
2022-10-27T08:23:40.222Z,8.95
2022-10-27T08:26:07.724Z,7.53
2022-10-27T08:28:35.087Z,7.90
2022-10-27T08:31:02.028Z,8.13
2022-10-27T08:33:29.099Z,7.55
2022-10-27T08:35:56.060Z,8.50
2022-10-27T08:38:23.177Z,7.80
2022-10-27T08:41:24.101Z,7.80
2022-10-27T08:44:21.762Z,6.57
2022-10-27T08:46:56.878Z,6.85
2022-10-27T08:49:35.437Z,7.07
2022-10-27T08:52:26.174Z,8.52
2022-10-27T08:55:01.074Z,8.18
2022-10-27T09:00:01.058Z,8.30
2022-10-27T09:03:33.053Z,8.88
2022-10-27T09:06:25.156Z,8.00
2022-10-27T09:09:03.264Z,9.93
2022-10-27T09:11:32.772Z,8.27
2022-10-27T09:14:53.673Z,8.38
2022-10-27T09:17:29.583Z,7.85
2022-10-27T09:20:08.938Z,8.27
2022-10-27T09:22:42.769Z,9.05
2022-10-27T09:25:21.956Z,7.72
2022-10-27T09:27:55.809Z,8.27
2022-10-27T09:30:34.076Z,8.98
2022-10-27T09:33:01.538Z,7.72
2022-10-27T09:35:31.623Z,7.45
2022-10-27T09:37:59.908Z,7.50
2022-10-27T09:40:32.973Z,8.20
2022-10-27T09:43:02.439Z,7.47
2022-10-27T09:45:29.859Z,8.60
2022-10-27T09:48:13.303Z,7.78
2022-10-27T09:51:12.200Z,7.60
2022-10-27T09:53:50.351Z,7.82
2022-10-27T09:56:26.839Z,8.48
2022-10-27T09:59:02.533Z,8.63
2022-10-27T10:01:57.395Z,8.68
2022-10-27T10:04:36.805Z,7.97
2022-10-27T10:07:06.944Z,8.15
2022-10-27T10:09:39.536Z,6.82
2022-10-27T10:12:26.553Z,7.20
2022-10-27T10:15:12.207Z,7.32
2022-10-27T10:18:01.604Z,7.47
2022-10-27T10:20:43.522Z,7.13
2022-10-27T10:23:26.218Z,6.85
2022-10-27T10:25:58.299Z,7.20
2022-10-27T10:28:39.576Z,6.10
2022-10-27T10:31:13.063Z,7.30
2022-10-27T10:33:47.027Z,6.80
2022-10-27T10:36:20.301Z,7.05
2022-10-27T10:38:57.169Z,6.85
2022-10-27T10:41:26.771Z,5.57
2022-10-27T10:44:29.537Z,5.65
2022-10-27T10:46:58.080Z,5.95
2022-10-27T10:49:31.007Z,5.70
2022-10-27T10:52:06.663Z,5.28
2022-10-27T10:54:40.186Z,5.50
2022-10-27T10:57:36.764Z,6.03
2022-10-27T11:00:07.062Z,4.95
2022-10-27T11:02:35.048Z,5.07
2022-10-27T11:05:21.202Z,5.57
2022-10-27T11:07:51.254Z,5.32
2022-10-27T11:10:28.359Z,5.00
2022-10-27T11:13:18.848Z,5.75
2022-10-27T11:16:01.511Z,5.10
2022-10-27T11:18:48.796Z,4.50
2022-10-27T11:21:43.141Z,5.38
2022-10-27T11:24:35.693Z,5.18
2022-10-27T11:27:13.199Z,5.15
2022-10-27T11:32:54.340Z,4.25
2022-10-27T11:35:39.073Z,4.93
2022-10-27T11:38:18.640Z,4.20
2022-10-27T11:41:01.290Z,4.63
2022-10-27T11:43:50.625Z,4.00
2022-10-27T11:46:55.296Z,4.88
2022-10-27T11:49:38.385Z,4.25
2022-10-27T11:52:43.056Z,4.13
2022-10-27T11:55:15.579Z,3.60
2022-10-27T11:58:14.726Z,4.82
2022-10-27T12:01:30.537Z,4.40
2022-10-27T12:04:21.376Z,3.75
2022-10-27T12:07:26.439Z,3.22
2022-10-27T12:10:18.261Z,3.17
2022-10-27T12:12:53.524Z,2.75
2022-10-27T12:15:33.761Z,3.25
2022-10-27T12:18:23.438Z,3.22
2022-10-27T12:21:42.148Z,3.95
2022-10-27T12:24:27.509Z,2.95
2022-10-27T12:27:02.238Z,3.33
2022-10-27T12:29:40.523Z,4.15
2022-10-27T12:32:18.556Z,3.30
2022-10-27T12:34:57.843Z,3.33
2022-10-27T12:38:08.153Z,2.78
2022-10-27T12:40:38.182Z,3.30
2022-10-27T12:43:58.574Z,3.45
2022-10-27T12:46:56.443Z,8.50
2022-10-27T12:50:04.350Z,11.32
2022-10-27T12:52:48.316Z,12.68
2022-10-27T12:55:33.020Z,11.02
2022-10-27T12:58:09.638Z,12.75
2022-10-27T13:01:22.596Z,11.32
2022-10-27T13:05:13.056Z,11.13
2022-10-27T13:07:42.919Z,10.90
2022-10-27T13:10:39.546Z,11.70
2022-10-27T13:13:44.221Z,11.40
2022-10-27T13:16:52.582Z,11.07
2022-10-27T13:19:54.297Z,11.20
2022-10-27T13:22:35.154Z,12.25
2022-10-27T13:25:12.692Z,12.95
2022-10-27T13:28:17.806Z,13.05
2022-10-27T13:31:01.336Z,13.90
2022-10-27T13:33:42.621Z,13.02
2022-10-27T13:36:24.725Z,24.38
2022-10-27T13:39:16.567Z,16.38
2022-10-27T13:42:11.934Z,15.05
2022-10-27T13:44:52.121Z,14.13
2022-10-27T13:47:25.141Z,13.73
2022-10-27T13:50:30.901Z,13.82
2022-10-27T13:53:20.018Z,13.20
2022-10-27T13:56:12.146Z,12.45
2022-10-27T13:59:16.830Z,13.40
2022-10-27T14:01:56.469Z,12.57
2022-10-27T14:04:58.820Z,13.55
2022-10-27T14:07:33.363Z,14.52
2022-10-27T14:10:02.882Z,14.18
2022-10-27T14:12:36.966Z,13.73
2022-10-27T14:15:19.363Z,13.88
2022-10-27T14:17:50.173Z,13.43
2022-10-27T14:20:41.214Z,13.23
2022-10-27T14:23:15.374Z,14.23
2022-10-27T14:25:48.247Z,13.60
2022-10-27T14:28:21.517Z,13.48
2022-10-27T14:31:18.953Z,14.18
2022-10-27T14:33:47.895Z,13.70
2022-10-27T14:36:30.687Z,14.23
2022-10-27T14:39:13.719Z,14.23
2022-10-27T14:41:49.876Z,12.75
2022-10-27T14:44:34.586Z,13.52
2022-10-27T14:47:17.163Z,13.35
2022-10-27T14:49:52.528Z,13.88
2022-10-27T14:52:33.420Z,13.02
2022-10-27T14:55:00.571Z,12.55
2022-10-27T14:57:35.283Z,12.70
2022-10-27T15:00:30.863Z,12.15
2022-10-27T15:03:06.098Z,14.45
2022-10-27T15:05:46.483Z,13.65
2022-10-27T15:08:28.331Z,13.65
2022-10-27T15:11:01.061Z,13.82
2022-10-27T15:13:29.083Z,14.77
2022-10-27T15:15:59.260Z,14.55
2022-10-27T15:18:31.866Z,14.65
2022-10-27T15:21:01.287Z,12.82
2022-10-27T15:23:28.918Z,11.60
2022-10-27T15:25:59.519Z,13.05
2022-10-27T15:28:33.210Z,12.50
2022-10-27T15:31:01.203Z,13.10
2022-10-27T15:33:28.232Z,11.32
2022-10-27T15:36:09.130Z,11.02
2022-10-27T15:38:36.617Z,13.18
2022-10-27T15:41:26.245Z,13.30
2022-10-27T15:44:28.714Z,11.40
2022-10-27T15:46:55.675Z,10.90
2022-10-27T15:49:30.893Z,11.02
2022-10-27T15:52:07.994Z,10.32
2022-10-27T15:54:49.421Z,9.77
2022-10-27T15:57:41.081Z,9.20
2022-10-27T16:00:25.471Z,9.57
2022-10-27T16:03:02.405Z,9.18
2022-10-27T16:05:32.574Z,9.43
2022-10-27T16:08:19.616Z,10.05
2022-10-27T16:10:52.465Z,9.65
2022-10-27T16:13:22.291Z,9.38
2022-10-27T16:15:50.371Z,9.60
2022-10-27T16:18:23.563Z,9.60
2022-10-27T16:20:50.641Z,9.70
2022-10-27T16:23:17.754Z,9.80
2022-10-27T16:25:48.918Z,9.73
2022-10-27T16:28:28.175Z,9.63
2022-10-27T16:30:55.427Z,9.15
2022-10-27T16:33:24.385Z,9.07
2022-10-27T16:35:51.746Z,8.65
2022-10-27T16:38:18.652Z,8.32
2022-10-27T16:40:48.209Z,8.38
2022-10-27T16:43:31.433Z,9.63
2022-10-27T16:45:58.453Z,8.02
2022-10-27T16:48:25.307Z,8.73
2022-10-27T16:50:52.326Z,8.77
2022-10-27T16:53:21.230Z,9.05
2022-10-27T16:56:06.960Z,9.10
2022-10-27T16:58:41.601Z,8.80
2022-10-27T17:01:19.391Z,8.15
2022-10-27T17:03:47.823Z,9.95
2022-10-27T17:06:17.047Z,9.38
2022-10-27T17:08:44.268Z,9.35
2022-10-27T17:11:15.196Z,9.85
2022-10-27T17:13:42.675Z,9.52
2022-10-27T17:16:17.232Z,9.88
2022-10-27T17:18:45.385Z,9.30
2022-10-27T17:21:14.378Z,9.82
2022-10-27T17:23:44.592Z,10.63
2022-10-27T17:26:13.715Z,10.50
2022-10-27T17:28:41.777Z,10.38
2022-10-27T17:31:12.926Z,10.73
2022-10-27T17:33:41.089Z,11.00
2022-10-27T17:36:14.524Z,10.98
2022-10-27T17:38:42.741Z,10.43
2022-10-27T17:41:11.201Z,11.30
2022-10-27T17:43:38.952Z,10.65
2022-10-27T17:46:11.620Z,11.35
2022-10-27T17:48:47.336Z,10.52
2022-10-27T17:51:22.781Z,10.75
2022-10-27T17:53:51.399Z,11.90
2022-10-27T17:56:22.638Z,11.88
2022-10-27T17:58:50.351Z,13.45
2022-10-27T18:01:22.149Z,12.50
2022-10-27T18:03:52.121Z,14.40
2022-10-27T18:06:26.266Z,16.73
2022-10-27T18:09:46.171Z,14.25
2022-10-27T18:12:13.276Z,10.73
2022-10-27T18:14:40.082Z,29.08
2022-10-27T18:17:10.555Z,34.72
2022-10-27T18:19:37.640Z,34.80
2022-10-27T18:22:04.798Z,36.05
2022-10-27T18:24:31.867Z,33.53
2022-10-27T18:26:59.117Z,28.92
2022-10-27T18:29:26.722Z,23.48
2022-10-27T18:31:54.072Z,25.17
2022-10-27T18:34:20.951Z,18.08
2022-10-27T18:36:47.969Z,15.15
2022-10-27T18:39:19.458Z,13.98
2022-10-27T18:41:49.184Z,12.38
2022-10-27T18:44:16.564Z,12.77
2022-10-27T18:46:44.321Z,16.25
2022-10-27T18:49:20.314Z,19.95
2022-10-27T18:51:47.877Z,17.00
2022-10-27T18:54:14.762Z,14.90
2022-10-27T18:56:41.881Z,15.57
2022-10-27T18:59:13.223Z,15.73
2022-10-27T19:01:42.698Z,11.75
2022-10-27T19:04:09.992Z,12.90
2022-10-27T19:06:38.003Z,14.05
2022-10-27T19:09:06.359Z,13.30
2022-10-27T19:11:36.196Z,14.50
2022-10-27T19:14:05.419Z,16.58
2022-10-27T19:16:32.772Z,15.13
2022-10-27T19:19:00.910Z,17.95
2022-10-27T19:21:28.888Z,15.82
2022-10-27T19:24:02.213Z,15.95
2022-10-27T19:26:33.733Z,16.77
2022-10-27T19:29:00.962Z,20.33
2022-10-27T19:31:33.300Z,16.95
2022-10-27T19:34:01.791Z,16.10
2022-10-27T19:36:34.052Z,16.55
2022-10-27T19:39:07.837Z,16.30
2022-10-27T19:41:36.743Z,17.08
2022-10-27T19:44:05.247Z,16.48
2022-10-27T19:46:33.234Z,14.50
2022-10-27T19:49:04.499Z,16.10
2022-10-27T19:51:36.483Z,16.02
2022-10-27T19:54:04.157Z,15.70
2022-10-27T19:56:32.806Z,15.25
2022-10-27T19:59:03.774Z,15.70
2022-10-27T20:01:38.114Z,16.40
2022-10-27T20:04:12.070Z,15.82
2022-10-27T20:06:46.302Z,15.32
2022-10-27T20:09:20.133Z,14.13
2022-10-27T20:11:48.173Z,15.87
2022-10-27T20:14:16.457Z,14.48
2022-10-27T20:16:46.457Z,17.13
2022-10-27T20:19:20.190Z,16.70
2022-10-27T20:21:49.420Z,17.95
2022-10-27T20:24:17.697Z,19.52
2022-10-27T20:29:21.577Z,16.98
2022-10-27T20:31:51.485Z,17.17
2022-10-27T20:34:18.814Z,16.25
2022-10-27T20:36:45.906Z,14.48
2022-10-27T20:39:17.228Z,14.85
2022-10-27T20:41:44.429Z,14.60
2022-10-27T20:44:11.335Z,14.98
2022-10-27T20:46:38.524Z,15.90
2022-10-27T20:49:05.968Z,14.65
2022-10-27T20:51:34.403Z,14.85
2022-10-27T20:54:03.444Z,14.75
2022-10-27T20:56:34.768Z,16.58
2022-10-27T20:59:03.310Z,13.50
2022-10-27T21:01:43.762Z,16.30
2022-10-27T21:04:15.049Z,16.60
2022-10-27T21:06:48.192Z,16.40
2022-10-27T21:09:20.069Z,17.02
2022-10-27T21:11:49.049Z,15.98
2022-10-27T21:14:16.648Z,16.55
2022-10-27T21:16:47.204Z,17.60
2022-10-27T21:19:17.820Z,15.23
2022-10-27T21:21:44.966Z,16.58
2022-10-27T21:24:14.666Z,14.55
2022-10-27T21:26:44.276Z,15.00
2022-10-27T21:29:11.126Z,14.35
2022-10-27T21:31:38.430Z,16.25
2022-10-27T21:34:06.320Z,14.75
2022-10-27T21:36:34.635Z,16.13
2022-10-27T21:39:01.681Z,15.40
2022-10-27T21:41:28.937Z,16.23
2022-10-27T21:43:57.155Z,16.55
2022-10-27T21:46:28.906Z,14.98
2022-10-27T21:49:00.862Z,14.00
2022-10-27T21:51:29.597Z,14.32
2022-10-27T21:54:01.313Z,14.18
2022-10-27T21:56:35.175Z,13.05
2022-10-27T21:59:03.408Z,13.25
2022-10-27T22:01:30.770Z,13.30
2022-10-27T22:03:58.205Z,14.57
2022-10-27T22:06:29.991Z,15.27
2022-10-27T22:08:58.135Z,16.17
2022-10-27T22:11:31.432Z,15.85
2022-10-27T22:13:58.825Z,16.23
2022-10-27T22:16:28.615Z,15.55
2022-10-27T22:18:59.371Z,16.75
2022-10-27T22:21:31.226Z,16.52
2022-10-27T22:23:59.213Z,15.38
2022-10-27T22:26:27.144Z,17.33
2022-10-27T22:28:55.303Z,17.67
2022-10-27T22:31:30.597Z,18.33
2022-10-27T22:34:00.608Z,15.38
2022-10-27T22:36:28.998Z,15.63
2022-10-27T22:38:59.595Z,15.57
2022-10-27T22:41:28.651Z,15.23
2022-10-27T22:43:58.963Z,15.50
2022-10-27T22:46:31.144Z,16.05
2022-10-27T22:48:58.763Z,14.40
2022-10-27T22:51:28.658Z,15.98
2022-10-27T22:53:57.812Z,14.27
2022-10-27T22:56:28.752Z,14.02
2022-10-27T22:58:59.585Z,15.30
2022-10-27T23:01:37.718Z,14.75
2022-10-27T23:04:08.084Z,14.65
2022-10-27T23:06:37.592Z,15.30
2022-10-27T23:09:18.068Z,14.73
2022-10-27T23:11:46.703Z,14.30
2022-10-27T23:14:16.503Z,16.13
2022-10-27T23:16:44.665Z,14.70
2022-10-27T23:19:13.226Z,15.73
2022-10-27T23:21:40.487Z,15.15
2022-10-27T23:24:08.019Z,15.23
2022-10-27T23:26:38.378Z,15.95
2022-10-27T23:29:12.263Z,15.52
2022-10-27T23:31:39.899Z,15.60
2022-10-27T23:34:08.017Z,15.00
2022-10-27T23:36:36.634Z,15.65
2022-10-27T23:39:05.067Z,15.20
2022-10-27T23:41:34.153Z,16.20
2022-10-27T23:44:02.487Z,15.23
2022-10-27T23:46:30.403Z,16.42
2022-10-27T23:48:58.512Z,15.77
2022-10-27T23:51:26.371Z,15.02
2022-10-27T23:53:55.729Z,16.63
2022-10-27T23:56:24.551Z,16.45
2022-10-27T23:58:51.437Z,15.68
